Time;durP1;ratioP1;P1;durP2;ratioP2;P2;SDS_P1;SDS_P2;PMS_P1;PMS_P2;Temp;Humidity;BMP_temperature;BMP_pressure;BME280_temperature;BME280_humidity;BME280_pressure;Samples;Min_cycle;Max_cycle;Signal;HPM_P1;HPM_P2
2023/09/05 00:01:18;;;;;;;4.00;3.10;;;20.00;99.90;;;;;;4966830;28;20049;-82
2023/09/05 00:03:43;;;;;;;5.50;3.08;;;19.90;99.90;;;;;;4959769;28;20023;-81
2023/09/05 00:06:10;;;;;;;4.88;2.75;;;19.90;99.90;;;;;;4962011;28;20434;-81
2023/09/05 00:08:39;;;;;;;4.45;3.10;;;19.90;99.90;;;;;;4967249;28;20027;-80
2023/09/05 00:11:05;;;;;;;3.97;3.10;;;19.80;99.90;;;;;;4957169;28;20035;-81
2023/09/05 00:13:30;;;;;;;4.40;3.08;;;19.80;99.90;;;;;;4965910;28;20049;-80
2023/09/05 00:15:58;;;;;;;5.22;3.50;;;19.80;99.90;;;;;;4957918;28;20030;-81
2023/09/05 00:18:23;;;;;;;4.50;3.05;;;19.80;99.90;;;;;;4962847;28;20030;-81
2023/09/05 00:20:54;;;;;;;6.55;3.47;;;19.80;99.90;;;;;;4949548;28;20023;-82
2023/09/05 00:23:24;;;;;;;4.45;3.08;;;19.70;99.90;;;;;;4962806;28;20023;-80
2023/09/05 00:25:49;;;;;;;5.53;3.50;;;19.70;99.90;;;;;;4958949;28;20035;-81
2023/09/05 00:28:15;;;;;;;5.00;3.45;;;19.70;99.90;;;;;;4965650;28;20035;-81
2023/09/05 00:30:41;;;;;;;4.38;2.92;;;19.70;99.90;;;;;;4953346;29;20082;-81
2023/09/05 00:33:06;;;;;;;4.93;3.50;;;19.70;99.90;;;;;;4936349;29;20027;-80
2023/09/05 00:35:32;;;;;;;6.28;3.83;;;19.60;99.90;;;;;;4943938;29;20023;-81
2023/09/05 00:37:58;;;;;;;5.20;3.47;;;19.60;99.90;;;;;;4957416;28;20035;-82
2023/09/05 00:40:26;;;;;;;5.00;3.13;;;19.60;99.90;;;;;;4963386;28;20079;-82
2023/09/05 00:42:52;;;;;;;6.18;3.75;;;19.50;99.90;;;;;;4967114;28;20073;-80
2023/09/05 00:45:21;;;;;;;4.63;3.50;;;19.50;99.90;;;;;;4961112;28;20042;-81
2023/09/05 00:47:47;;;;;;;5.45;3.35;;;19.50;99.90;;;;;;4959023;28;20445;-84
2023/09/05 00:50:18;;;;;;;5.43;3.42;;;19.50;99.90;;;;;;4967066;28;20019;-82
2023/09/05 00:52:47;;;;;;;4.95;3.25;;;19.50;99.90;;;;;;4965731;28;20628;-81
2023/09/05 00:55:13;;;;;;;5.60;2.88;;;19.40;99.90;;;;;;4955362;28;20026;-82
2023/09/05 00:57:40;;;;;;;5.80;3.13;;;19.40;99.90;;;;;;4960041;28;20027;-82
2023/09/05 01:00:09;;;;;;;6.05;3.10;;;19.40;99.90;;;;;;4940251;28;20085;-82
2023/09/05 01:02:36;;;;;;;7.95;3.58;;;19.40;99.90;;;;;;4964276;28;20043;-82
2023/09/05 01:05:08;;;;;;;4.78;3.38;;;19.30;99.90;;;;;;4966675;28;20532;-81
2023/09/05 01:08:09;;;;;;;5.55;3.08;;;19.30;99.90;;;;;;4962091;28;20120;-82
2023/09/05 01:11:08;;;;;;;4.47;3.00;;;19.30;99.90;;;;;;4904240;28;20481;-81
2023/09/05 01:13:37;;;;;;;5.00;2.95;;;19.30;99.90;;;;;;4969071;28;20670;-81
2023/09/05 01:16:05;;;;;;;5.88;3.33;;;19.20;99.90;;;;;;4970912;28;20027;-81
2023/09/05 01:18:33;;;;;;;8.32;3.33;;;19.20;99.90;;;;;;4967721;28;20057;-81
2023/09/05 01:21:05;;;;;;;5.30;3.00;;;19.20;99.90;;;;;;4958258;28;20027;-81
2023/09/05 01:23:37;;;;;;;5.57;2.97;;;19.20;99.90;;;;;;4965674;28;20027;-81
2023/09/05 01:26:04;;;;;;;6.45;2.92;;;19.20;99.90;;;;;;4970103;28;20023;-81
2023/09/05 01:28:35;;;;;;;4.03;2.97;;;19.10;99.90;;;;;;4956709;29;20038;-82
2023/09/05 01:31:03;;;;;;;5.65;2.90;;;19.10;99.90;;;;;;4969919;28;20094;-81
2023/09/05 01:33:29;;;;;;;4.18;2.83;;;19.10;99.90;;;;;;4965068;28;20031;-81
2023/09/05 01:35:55;;;;;;;5.47;3.33;;;19.10;99.90;;;;;;4961694;28;20024;-81
2023/09/05 01:38:21;;;;;;;3.45;2.63;;;19.10;99.90;;;;;;4968926;28;20023;-81
2023/09/05 01:40:47;;;;;;;4.88;3.30;;;19.10;99.90;;;;;;4968445;28;20539;-82
2023/09/05 01:43:12;;;;;;;3.72;2.90;;;19.10;99.90;;;;;;4961760;28;20015;-81
2023/09/05 01:45:38;;;;;;;4.22;2.40;;;19.10;99.90;;;;;;4947876;29;20027;-82
2023/09/05 01:48:04;;;;;;;4.50;2.97;;;19.10;99.90;;;;;;4969559;28;20054;-82
2023/09/05 01:50:34;;;;;;;4.78;2.88;;;19.00;99.90;;;;;;4947359;28;20031;-82
2023/09/05 01:52:59;;;;;;;3.72;2.63;;;19.00;99.90;;;;;;4961740;28;20034;-81
2023/09/05 01:55:28;;;;;;;4.90;3.10;;;19.10;99.90;;;;;;4968197;28;20114;-81
2023/09/05 01:57:53;;;;;;;4.60;3.10;;;19.10;99.90;;;;;;4958874;28;20038;-81
2023/09/05 02:00:19;;;;;;;4.60;3.03;;;19.10;99.90;;;;;;4969705;28;20023;-82
2023/09/05 02:02:45;;;;;;;5.85;3.22;;;19.10;99.90;;;;;;4966187;28;20030;-81
2023/09/05 02:05:11;;;;;;;5.35;3.15;;;19.10;99.90;;;;;;4969601;28;20042;-82
2023/09/05 02:07:36;;;;;;;5.90;3.15;;;19.10;99.90;;;;;;4964710;28;20029;-82
2023/09/05 02:10:02;;;;;;;5.15;2.92;;;19.10;99.90;;;;;;4961453;28;20103;-81
2023/09/05 02:12:28;;;;;;;3.85;2.88;;;19.10;99.90;;;;;;4961026;28;20019;-81
2023/09/05 02:14:53;;;;;;;5.03;3.20;;;19.10;99.90;;;;;;4965821;28;20045;-81
2023/09/05 02:17:20;;;;;;;4.55;3.47;;;19.10;99.90;;;;;;4951312;28;20027;-81
2023/09/05 02:19:46;;;;;;;7.93;3.25;;;19.10;99.90;;;;;;4946152;28;20015;-81
2023/09/05 02:22:12;;;;;;;7.95;3.25;;;19.10;99.90;;;;;;4953487;28;20035;-81
2023/09/05 02:24:38;;;;;;;5.78;3.22;;;19.10;99.90;;;;;;4969373;28;20114;-82
2023/09/05 02:27:07;;;;;;;6.53;3.33;;;19.10;99.90;;;;;;4938606;29;20039;-81
2023/09/05 02:29:32;;;;;;;4.32;3.03;;;19.00;99.90;;;;;;4969843;28;20102;-82
2023/09/05 02:31:58;;;;;;;5.43;3.10;;;19.00;99.90;;;;;;4948035;28;20468;-81
2023/09/05 02:34:24;;;;;;;5.20;3.05;;;19.00;99.90;;;;;;4943728;28;20054;-82
2023/09/05 02:36:53;;;;;;;4.20;3.20;;;19.00;99.90;;;;;;4954681;29;20031;-81
2023/09/05 02:39:23;;;;;;;4.00;2.83;;;19.00;99.90;;;;;;4972491;28;20035;-82
2023/09/05 02:41:48;;;;;;;4.72;3.15;;;18.90;99.90;;;;;;4964967;28;20258;-81
2023/09/05 02:44:14;;;;;;;5.70;3.30;;;18.90;99.90;;;;;;4961830;28;20528;-81
2023/09/05 02:46:40;;;;;;;3.75;2.70;;;18.90;99.90;;;;;;4968617;28;20047;-82
2023/09/05 02:49:06;;;;;;;3.83;2.72;;;18.90;99.90;;;;;;4966201;28;20026;-81
2023/09/05 02:51:32;;;;;;;4.70;2.80;;;18.90;99.90;;;;;;4960380;28;20019;-81
2023/09/05 02:53:59;;;;;;;3.92;2.78;;;18.90;99.90;;;;;;4965624;28;20039;-81
2023/09/05 02:56:25;;;;;;;4.25;3.17;;;18.90;99.90;;;;;;4968181;28;20022;-82
2023/09/05 02:58:51;;;;;;;10.35;3.28;;;18.80;99.90;;;;;;4962449;28;20029;-81
2023/09/05 03:01:16;;;;;;;5.00;3.25;;;18.80;99.90;;;;;;4961505;28;20023;-82
2023/09/05 03:03:43;;;;;;;4.10;3.38;;;18.80;99.90;;;;;;4948729;29;20030;-82
2023/09/05 03:06:12;;;;;;;5.18;3.50;;;18.80;99.90;;;;;;4965842;28;20493;-80
2023/09/05 03:08:38;;;;;;;5.07;3.00;;;18.80;99.90;;;;;;4960530;28;20019;-81
2023/09/05 03:11:05;;;;;;;5.00;3.10;;;18.80;99.90;;;;;;4969885;28;20022;-81
2023/09/05 03:13:31;;;;;;;6.32;3.78;;;18.80;99.90;;;;;;4962133;28;20031;-82
2023/09/05 03:15:57;;;;;;;4.60;2.97;;;18.80;99.90;;;;;;4951716;29;20030;-81
2023/09/05 03:18:25;;;;;;;5.90;3.78;;;18.80;99.90;;;;;;4964524;28;20023;-82
2023/09/05 03:20:51;;;;;;;5.65;3.67;;;18.80;99.90;;;;;;4960154;28;20074;-81
2023/09/05 03:23:16;;;;;;;4.32;3.20;;;18.80;99.90;;;;;;4965574;28;20019;-81
2023/09/05 03:25:42;;;;;;;5.57;3.75;;;18.80;99.90;;;;;;4968229;28;20178;-81
2023/09/05 03:28:12;;;;;;;5.38;3.72;;;18.80;99.90;;;;;;4953151;29;20633;-81
2023/09/05 03:30:39;;;;;;;5.28;3.15;;;18.80;99.90;;;;;;4967671;28;20082;-81
2023/09/05 03:33:05;;;;;;;5.05;3.78;;;18.80;99.90;;;;;;4959982;28;20015;-82
2023/09/05 03:35:32;;;;;;;4.72;3.20;;;18.80;99.90;;;;;;4961433;28;20033;-82
2023/09/05 03:37:58;;;;;;;7.22;3.95;;;18.80;99.90;;;;;;4950201;29;20138;-82
2023/09/05 03:40:23;;;;;;;6.25;3.78;;;18.80;99.90;;;;;;4963042;28;20070;-81
2023/09/05 03:42:49;;;;;;;4.70;3.50;;;18.70;99.90;;;;;;4960148;28;20102;-82
2023/09/05 03:45:15;;;;;;;6.55;3.75;;;18.70;99.90;;;;;;4948412;29;20461;-82
2023/09/05 03:47:41;;;;;;;6.00;3.58;;;18.70;99.90;;;;;;4954701;29;20110;-82
2023/09/05 03:50:07;;;;;;;5.55;3.83;;;18.80;99.90;;;;;;4947742;29;20131;-81
2023/09/05 03:52:33;;;;;;;6.90;4.25;;;18.70;99.90;;;;;;4955843;28;20061;-82
2023/09/05 03:55:02;;;;;;;6.55;3.90;;;18.80;99.90;;;;;;4958802;28;20050;-82
2023/09/05 03:57:27;;;;;;;5.13;3.80;;;18.70;99.90;;;;;;4963802;28;20023;-82
2023/09/05 03:59:53;;;;;;;5.75;3.25;;;18.70;99.90;;;;;;4967937;28;20030;-81
2023/09/05 04:02:18;;;;;;;6.32;3.70;;;18.70;99.90;;;;;;4953719;29;20035;-81
2023/09/05 04:04:44;;;;;;;5.07;3.92;;;18.70;99.90;;;;;;4968040;28;20050;-82
2023/09/05 04:07:10;;;;;;;5.78;4.13;;;18.70;99.90;;;;;;4959816;28;20122;-81
2023/09/05 04:09:36;;;;;;;5.00;3.80;;;18.60;99.90;;;;;;4963575;28;20087;-80
2023/09/05 04:12:01;;;;;;;5.97;3.40;;;18.60;99.90;;;;;;4959659;28;20091;-81
2023/09/05 04:14:27;;;;;;;6.43;3.83;;;18.60;99.90;;;;;;4947805;28;20029;-80
2023/09/05 04:16:53;;;;;;;5.90;4.05;;;18.60;99.90;;;;;;4970194;28;20154;-82
2023/09/05 04:19:18;;;;;;;4.75;3.58;;;18.60;99.90;;;;;;4959505;28;20015;-81
2023/09/05 04:21:44;;;;;;;5.60;4.38;;;18.60;99.90;;;;;;4963721;28;20034;-81
2023/09/05 04:24:09;;;;;;;8.35;4.50;;;18.60;99.90;;;;;;4950072;28;20442;-81
2023/09/05 04:26:37;;;;;;;4.78;3.65;;;18.50;99.90;;;;;;4961142;28;20025;-82
2023/09/05 04:29:05;;;;;;;6.38;4.28;;;18.50;99.90;;;;;;4959327;28;20109;-82
2023/09/05 04:31:31;;;;;;;5.88;3.85;;;18.50;99.90;;;;;;4952106;29;20119;-80
2023/09/05 04:33:59;;;;;;;5.30;3.95;;;18.50;99.90;;;;;;4958318;28;20114;-80
2023/09/05 04:36:26;;;;;;;6.43;3.92;;;18.50;99.90;;;;;;4940468;28;20022;-81
2023/09/05 04:38:51;;;;;;;5.30;3.80;;;18.50;99.90;;;;;;4962049;28;20040;-80
2023/09/05 04:41:20;;;;;;;4.88;3.50;;;18.50;99.90;;;;;;4966802;28;20512;-81
2023/09/05 04:43:46;;;;;;;5.53;4.13;;;18.40;99.90;;;;;;4961021;28;20027;-81
2023/09/05 04:46:12;;;;;;;6.47;4.15;;;18.40;99.90;;;;;;4961862;28;20024;-81
2023/09/05 04:48:41;;;;;;;6.43;4.55;;;18.40;99.90;;;;;;4969374;28;20051;-81
2023/09/05 04:51:06;;;;;;;5.80;4.35;;;18.40;99.90;;;;;;4970485;28;20094;-80
2023/09/05 04:53:32;;;;;;;5.47;4.22;;;18.40;99.90;;;;;;4958508;28;20548;-81
2023/09/05 04:56:00;;;;;;;8.02;4.35;;;18.40;99.90;;;;;;4955760;29;20027;-81
2023/09/05 04:58:33;;;;;;;7.88;4.40;;;18.30;99.90;;;;;;4955331;29;20103;-81
2023/09/05 05:01:03;;;;;;;9.38;5.10;;;18.30;99.90;;;;;;4967457;28;20019;-81
2023/09/05 05:03:32;;;;;;;6.63;4.32;;;18.30;99.90;;;;;;4951768;29;20026;-81
2023/09/05 05:05:58;;;;;;;6.70;4.57;;;18.30;99.90;;;;;;4966469;28;20041;-81
2023/09/05 05:08:24;;;;;;;8.15;4.72;;;18.30;99.90;;;;;;4944979;28;20032;-83
2023/09/05 05:10:50;;;;;;;6.55;4.13;;;18.30;99.90;;;;;;4960953;28;20039;-81
2023/09/05 05:13:15;;;;;;;7.15;4.78;;;18.20;99.90;;;;;;4966336;28;20023;-81
2023/09/05 05:15:45;;;;;;;5.75;3.92;;;18.20;99.90;;;;;;4962067;28;20138;-80
2023/09/05 05:18:14;;;;;;;8.20;4.25;;;18.20;99.90;;;;;;4951511;28;20397;-81
2023/09/05 05:20:40;;;;;;;7.68;5.28;;;18.20;99.90;;;;;;4962401;28;20023;-80
2023/09/05 05:23:06;;;;;;;7.00;4.65;;;18.20;99.90;;;;;;4969214;28;20622;-81
2023/09/05 05:25:32;;;;;;;5.25;4.07;;;18.10;99.90;;;;;;4969280;28;20038;-81
2023/09/05 05:27:58;;;;;;;5.03;3.70;;;18.10;99.90;;;;;;4961846;28;20829;-81
2023/09/05 05:30:24;;;;;;;5.97;4.22;;;18.10;99.90;;;;;;4965033;28;20031;-80
2023/09/05 05:32:50;;;;;;;7.45;4.10;;;18.10;99.90;;;;;;4956143;28;20035;-81
2023/09/05 05:35:17;;;;;;;6.93;4.55;;;18.10;99.90;;;;;;4957284;28;20055;-81
2023/09/05 05:37:43;;;;;;;6.88;5.03;;;18.10;99.90;;;;;;4940236;28;20061;-82
2023/09/05 05:40:13;;;;;;;5.72;4.38;;;18.10;99.90;;;;;;4959058;28;20417;-81
2023/09/05 05:42:38;;;;;;;6.63;4.47;;;18.10;99.90;;;;;;4972148;28;20023;-81
2023/09/05 05:45:04;;;;;;;6.32;4.38;;;18.10;99.90;;;;;;4951698;28;20034;-82
2023/09/05 05:47:31;;;;;;;5.50;4.20;;;18.10;99.90;;;;;;4955906;28;20585;-81
2023/09/05 05:49:57;;;;;;;5.05;4.43;;;18.10;99.90;;;;;;4961890;28;20026;-81
2023/09/05 05:52:23;;;;;;;5.70;4.38;;;18.10;99.90;;;;;;4970617;28;20106;-82
2023/09/05 05:54:48;;;;;;;6.85;4.18;;;18.10;99.90;;;;;;4966406;28;20386;-83
2023/09/05 05:57:14;;;;;;;8.27;4.90;;;18.10;99.90;;;;;;4965240;28;20018;-82
2023/09/05 05:59:40;;;;;;;7.05;5.18;;;18.10;99.90;;;;;;4962422;28;20023;-81
2023/09/05 06:02:07;;;;;;;6.50;4.63;;;18.10;99.90;;;;;;4960854;28;20023;-83
2023/09/05 06:04:33;;;;;;;6.82;4.18;;;18.20;99.90;;;;;;4956995;28;20019;-80
2023/09/05 06:06:59;;;;;;;5.72;4.55;;;18.20;99.90;;;;;;4960094;28;20500;-82
2023/09/05 06:09:29;;;;;;;6.57;4.72;;;18.20;99.90;;;;;;4957749;28;20450;-81
2023/09/05 06:11:54;;;;;;;5.72;4.45;;;18.20;99.90;;;;;;4955288;28;20056;-83
2023/09/05 06:14:20;;;;;;;7.00;4.65;;;18.20;99.90;;;;;;4982662;28;20027;-80
2023/09/05 06:16:51;;;;;;;5.70;4.15;;;18.20;99.90;;;;;;4956572;28;20541;-80
2023/09/05 06:19:17;;;;;;;9.02;4.45;;;18.30;99.90;;;;;;4959150;28;20097;-82
2023/09/05 06:21:46;;;;;;;9.77;4.68;;;18.30;99.90;;;;;;4974139;28;20050;-83
2023/09/05 06:24:12;;;;;;;6.53;4.35;;;18.30;99.90;;;;;;4956878;28;20063;-81
2023/09/05 06:26:38;;;;;;;8.07;4.57;;;18.40;99.90;;;;;;4953669;29;20503;-80
2023/09/05 06:29:04;;;;;;;5.97;4.38;;;18.40;99.90;;;;;;4949880;29;20285;-80
2023/09/05 06:31:30;;;;;;;5.75;4.35;;;18.40;99.90;;;;;;4954262;29;20061;-82
2023/09/05 06:33:55;;;;;;;7.70;5.68;;;18.40;99.90;;;;;;4959786;28;20685;-80
2023/09/05 06:36:22;;;;;;;6.13;4.80;;;18.50;99.90;;;;;;4963832;28;20011;-80
2023/09/05 06:38:50;;;;;;;6.13;4.47;;;18.50;99.90;;;;;;4956881;28;20525;-80
2023/09/05 06:41:16;;;;;;;5.65;4.07;;;18.60;99.90;;;;;;4961148;28;20030;-80
2023/09/05 06:43:42;;;;;;;5.15;3.88;;;18.60;99.90;;;;;;4944174;29;20027;-80
2023/09/05 06:46:10;;;;;;;5.25;3.80;;;18.60;99.90;;;;;;4956203;28;20034;-80
2023/09/05 06:48:39;;;;;;;7.80;4.13;;;18.70;99.90;;;;;;4961329;28;20061;-80
2023/09/05 06:51:07;;;;;;;6.53;4.00;;;18.70;99.90;;;;;;4969939;28;20031;-79
2023/09/05 06:53:33;;;;;;;8.00;3.40;;;18.80;99.90;;;;;;4965389;28;20106;-80
2023/09/05 06:55:59;;;;;;;4.88;3.75;;;18.80;99.90;;;;;;4964079;28;20038;-79
2023/09/05 06:58:25;;;;;;;5.70;3.95;;;18.80;99.90;;;;;;4966236;28;20110;-82
2023/09/05 07:00:54;;;;;;;4.50;3.70;;;18.90;99.90;;;;;;4960453;28;20030;-80
2023/09/05 07:03:24;;;;;;;5.35;4.00;;;18.90;99.90;;;;;;4949375;28;20081;-80
2023/09/05 07:05:51;;;;;;;7.40;3.95;;;19.00;99.90;;;;;;4956925;28;20106;-81
2023/09/05 07:08:16;;;;;;;7.47;4.03;;;19.00;99.90;;;;;;4954226;28;20409;-80
2023/09/05 07:10:42;;;;;;;5.30;4.28;;;19.00;99.90;;;;;;4958311;28;20034;-80
2023/09/05 07:13:08;;;;;;;7.70;4.03;;;19.10;99.90;;;;;;4963350;28;20062;-81
2023/09/05 07:15:34;;;;;;;5.10;3.90;;;19.20;99.90;;;;;;4958657;28;20054;-81
2023/09/05 07:17:59;;;;;;;5.93;3.90;;;19.20;99.90;;;;;;4960731;28;20030;-80
2023/09/05 07:20:25;;;;;;;5.93;3.85;;;19.30;99.90;;;;;;4954677;28;20023;-81
2023/09/05 07:22:51;;;;;;;7.60;4.03;;;19.30;99.90;;;;;;4961306;28;20371;-81
2023/09/05 07:25:18;;;;;;;8.55;4.28;;;19.30;99.90;;;;;;4959597;28;20102;-81
2023/09/05 07:27:47;;;;;;;5.53;4.10;;;19.40;99.90;;;;;;4958703;28;20390;-81
2023/09/05 07:30:13;;;;;;;4.55;3.35;;;19.50;99.90;;;;;;4962500;28;20039;-80
2023/09/05 07:32:39;;;;;;;5.30;3.85;;;19.50;99.90;;;;;;4974754;28;20069;-81
2023/09/05 07:35:05;;;;;;;6.60;3.75;;;19.60;99.90;;;;;;4965932;28;20465;-80
2023/09/05 07:37:31;;;;;;;6.13;3.22;;;19.60;99.90;;;;;;4947430;28;20055;-80
2023/09/05 07:39:57;;;;;;;4.72;2.90;;;19.70;99.90;;;;;;4970682;28;20047;-75
2023/09/05 07:42:22;;;;;;;4.97;3.20;;;19.70;99.90;;;;;;4967091;28;20027;-74
2023/09/05 07:44:48;;;;;;;5.95;3.17;;;19.80;99.90;;;;;;4965968;28;20061;-74
2023/09/05 07:47:17;;;;;;;5.00;3.45;;;19.90;99.90;;;;;;4944752;28;20030;-74
2023/09/05 07:49:43;;;;;;;5.38;2.88;;;20.00;99.90;;;;;;4962176;28;20492;-75
2023/09/05 07:52:09;;;;;;;5.03;2.72;;;20.10;99.90;;;;;;4948810;28;20073;-75
2023/09/05 07:54:35;;;;;;;5.55;2.95;;;20.10;99.90;;;;;;4956601;28;20027;-74
2023/09/05 07:57:02;;;;;;;5.60;2.30;;;20.20;99.90;;;;;;4942241;28;20023;-74
2023/09/05 07:59:28;;;;;;;6.88;2.58;;;20.30;99.90;;;;;;4956896;28;20071;-74
2023/09/05 08:01:55;;;;;;;5.25;2.10;;;20.40;99.90;;;;;;4958748;28;20019;-74
2023/09/05 08:04:21;;;;;;;4.38;2.33;;;20.50;99.90;;;;;;4951967;28;20382;-74
2023/09/05 08:06:48;;;;;;;5.22;2.30;;;20.60;99.90;;;;;;4956620;28;20027;-74
2023/09/05 08:09:17;;;;;;;6.20;2.85;;;20.60;99.90;;;;;;4964923;28;20027;-74
2023/09/05 08:11:42;;;;;;;7.25;2.40;;;20.70;99.90;;;;;;4964731;28;20030;-74
2023/09/05 08:14:08;;;;;;;6.93;2.90;;;20.80;99.90;;;;;;4948327;28;20026;-74
2023/09/05 08:16:34;;;;;;;4.28;2.40;;;20.90;99.90;;;;;;4958628;28;20055;-75
2023/09/05 08:19:00;;;;;;;18.05;2.97;;;21.00;99.90;;;;;;4966639;28;20039;-74
2023/09/05 08:21:26;;;;;;;5.38;2.45;;;21.10;99.90;;;;;;4953465;29;20093;-74
2023/09/05 08:23:52;;;;;;;4.70;2.45;;;21.20;99.90;;;;;;4966087;28;20027;-74
2023/09/05 08:26:18;;;;;;;4.22;2.55;;;21.20;99.90;;;;;;4959438;28;20014;-74
2023/09/05 08:28:45;;;;;;;6.13;2.70;;;21.30;99.90;;;;;;4961324;28;20082;-74
2023/09/05 08:31:14;;;;;;;5.45;2.47;;;21.40;99.90;;;;;;4957197;28;20097;-74
2023/09/05 08:33:40;;;;;;;5.20;2.83;;;21.50;99.90;;;;;;4953425;28;20443;-74
2023/09/05 08:36:08;;;;;;;5.30;2.60;;;21.50;99.90;;;;;;4944403;28;20126;-73
2023/09/05 08:38:35;;;;;;;4.05;2.40;;;21.60;99.90;;;;;;4953169;28;20039;-74
2023/09/05 08:41:04;;;;;;;4.10;2.25;;;21.70;99.90;;;;;;4949534;28;20026;-74
2023/09/05 08:43:34;;;;;;;5.32;2.63;;;21.80;99.90;;;;;;4959696;28;20151;-74
2023/09/05 08:46:02;;;;;;;5.20;2.50;;;21.80;99.90;;;;;;4959526;28;20062;-74
2023/09/05 08:48:32;;;;;;;5.18;2.58;;;21.90;99.90;;;;;;4952434;28;20035;-75
2023/09/05 08:51:00;;;;;;;4.72;2.30;;;22.00;99.90;;;;;;4969573;28;20038;-74
2023/09/05 08:53:42;;;;;;;4.32;2.40;;;22.10;99.90;;;;;;4954839;28;20019;-74
2023/09/05 08:56:10;;;;;;;3.88;2.15;;;22.10;99.90;;;;;;4959899;28;20043;-74
2023/09/05 08:58:37;;;;;;;5.85;2.50;;;22.20;99.90;;;;;;4966425;28;20019;-74
2023/09/05 09:01:03;;;;;;;5.38;3.20;;;22.30;99.90;;;;;;4964349;28;20027;-74
2023/09/05 09:03:30;;;;;;;5.15;2.63;;;22.40;99.90;;;;;;4958171;28;20054;-74
2023/09/05 09:05:57;;;;;;;7.10;2.80;;;22.40;99.90;;;;;;4963141;28;20027;-74
2023/09/05 09:08:23;;;;;;;6.30;2.85;;;22.50;99.90;;;;;;4966187;28;20038;-74
2023/09/05 09:11:05;;;;;;;4.93;2.33;;;22.60;99.90;;;;;;4939666;29;20027;-74
2023/09/05 09:13:35;;;;;;;6.28;2.58;;;22.70;99.90;;;;;;4952549;29;20552;-74
2023/09/05 09:16:02;;;;;;;3.60;2.28;;;22.80;99.90;;;;;;4966609;28;20029;-74
2023/09/05 09:18:31;;;;;;;6.57;2.63;;;22.80;99.90;;;;;;4963026;28;20045;-75
2023/09/05 09:21:04;;;;;;;5.05;2.13;;;22.90;99.90;;;;;;4958706;28;20026;-75
2023/09/05 09:23:33;;;;;;;4.72;2.10;;;23.00;99.90;;;;;;4944585;29;20405;-74
2023/09/05 09:26:00;;;;;;;5.53;2.55;;;23.10;99.90;;;;;;4965354;28;20085;-74
2023/09/05 09:28:31;;;;;;;6.35;2.53;;;23.20;99.90;;;;;;4961087;28;20039;-74
2023/09/05 09:31:02;;;;;;;3.38;1.95;;;23.30;99.90;;;;;;4959226;28;20102;-74
2023/09/05 09:33:33;;;;;;;5.03;2.30;;;23.40;99.90;;;;;;4967084;28;20049;-74
2023/09/05 09:36:15;;;;;;;4.65;2.38;;;23.50;99.90;;;;;;4960774;28;20907;-74
2023/09/05 09:38:41;;;;;;;4.18;2.40;;;23.60;99.90;;;;;;4964717;28;20120;-74
2023/09/05 09:41:07;;;;;;;3.88;2.55;;;23.60;99.90;;;;;;4969733;28;20050;-75
2023/09/05 09:43:35;;;;;;;4.20;1.90;;;23.70;99.90;;;;;;4962693;28;20027;-74
2023/09/05 09:46:08;;;;;;;3.80;2.10;;;23.80;99.90;;;;;;4957635;28;20035;-74
2023/09/05 09:48:35;;;;;;;3.75;2.05;;;23.90;99.90;;;;;;4949430;28;20149;-75
2023/09/05 09:51:05;;;;;;;4.03;2.08;;;24.00;99.90;;;;;;4962784;28;20181;-74
2023/09/05 09:53:36;;;;;;;3.28;1.85;;;24.10;99.90;;;;;;4969502;28;20094;-74
2023/09/05 09:56:12;;;;;;;7.85;1.88;;;24.20;99.90;;;;;;4967634;28;20066;-74
2023/09/05 09:58:45;;;;;;;4.68;2.20;;;24.30;99.90;;;;;;4961285;28;20019;-74
2023/09/05 10:01:12;;;;;;;3.03;1.90;;;24.40;99.90;;;;;;4963051;28;20047;-74
2023/09/05 10:03:44;;;;;;;3.63;1.90;;;24.50;99.90;;;;;;4970336;28;20011;-74
2023/09/05 10:06:10;;;;;;;3.97;2.13;;;24.60;99.90;;;;;;4963709;28;20028;-74
2023/09/05 10:08:37;;;;;;;3.13;1.90;;;24.70;99.90;;;;;;4968760;28;20050;-74
2023/09/05 10:11:04;;;;;;;2.85;1.85;;;24.80;99.90;;;;;;4958047;28;20027;-74
2023/09/05 10:13:35;;;;;;;3.15;1.80;;;24.80;99.90;;;;;;4959330;28;20094;-74
2023/09/05 10:16:01;;;;;;;2.60;1.63;;;24.90;99.90;;;;;;4961506;28;20038;-74
2023/09/05 10:18:38;;;;;;;4.65;1.90;;;25.00;99.90;;;;;;4965486;28;20027;-74
2023/09/05 10:21:04;;;;;;;3.10;1.88;;;25.10;99.90;;;;;;4943903;28;20024;-74
2023/09/05 10:23:36;;;;;;;3.35;1.85;;;25.20;99.90;;;;;;4963254;28;20050;-75
2023/09/05 10:26:03;;;;;;;5.03;2.00;;;25.30;99.90;;;;;;4956112;28;20520;-75
2023/09/05 10:28:29;;;;;;;4.68;1.80;;;25.30;99.90;;;;;;4956480;28;20034;-74
2023/09/05 10:31:12;;;;;;;2.92;1.77;;;25.40;99.90;;;;;;4959718;28;20114;-74
2023/09/05 10:33:47;;;;;;;3.15;1.70;;;25.50;99.90;;;;;;4946415;28;20110;-75
2023/09/05 10:36:42;;;;;;;3.65;1.77;;;25.60;99.90;;;;;;4954511;28;20454;-74
2023/09/05 10:39:22;;;;;;;4.00;1.60;;;25.70;99.90;;;;;;4949311;28;20035;-75
2023/09/05 10:41:48;;;;;;;3.80;1.80;;;25.70;99.90;;;;;;4938159;29;20027;-74
2023/09/05 10:44:14;;;;;;;5.00;1.80;;;25.80;99.90;;;;;;4954652;28;20218;-75
2023/09/05 10:46:40;;;;;;;3.60;1.80;;;25.90;99.90;;;;;;4956066;28;20023;-74
2023/09/05 10:49:19;;;;;;;3.20;1.75;;;26.00;99.90;;;;;;4948136;28;20036;-75
2023/09/05 10:52:19;;;;;;;3.15;1.70;;;26.00;99.90;;;;;;4968663;28;20027;-74
2023/09/05 10:54:45;;;;;;;2.75;1.80;;;26.10;99.90;;;;;;4956354;28;20462;-75
2023/09/05 10:57:50;;;;;;;4.22;2.25;;;26.20;99.90;;;;;;4965134;28;20027;-74
2023/09/05 11:00:26;;;;;;;3.05;1.92;;;26.30;99.90;;;;;;4887742;29;20051;-74
2023/09/05 11:02:55;;;;;;;1.75;1.55;;;26.40;99.90;;;;;;4884389;29;20136;-74
2023/09/05 11:05:26;;;;;;;3.25;1.77;;;26.40;99.90;;;;;;4889432;29;20025;-75
2023/09/05 11:07:55;;;;;;;3.53;2.17;;;26.50;99.60;;;;;;4887186;29;20486;-74
2023/09/05 11:10:28;;;;;;;2.30;1.65;;;26.60;98.90;;;;;;4881961;29;20626;-75
2023/09/05 11:12:54;;;;;;;3.03;1.60;;;26.60;98.90;;;;;;4863994;29;20223;-75
2023/09/05 11:15:45;;;;;;;3.25;1.60;;;26.70;97.90;;;;;;4888566;29;20135;-74
2023/09/05 11:18:14;;;;;;;2.30;1.60;;;26.80;98.00;;;;;;4872670;29;20131;-75
2023/09/05 11:20:47;;;;;;;4.45;1.60;;;26.90;98.10;;;;;;4881804;29;20120;-74
2023/09/05 11:23:25;;;;;;;5.47;1.88;;;27.00;97.90;;;;;;4886936;29;20050;-75
2023/09/05 11:25:55;;;;;;;3.20;1.80;;;27.00;97.90;;;;;;4885904;29;20033;-74
2023/09/05 11:28:25;;;;;;;3.05;1.58;;;27.10;97.70;;;;;;4857770;29;20059;-75
2023/09/05 11:30:56;;;;;;;2.17;1.48;;;27.10;97.80;;;;;;4886081;29;20043;-74
2023/09/05 11:33:27;;;;;;;3.85;1.80;;;27.20;97.70;;;;;;4885875;28;20042;-74
2023/09/05 11:35:53;;;;;;;2.63;1.70;;;27.30;97.40;;;;;;4956177;28;20039;-74
2023/09/05 11:38:22;;;;;;;4.20;1.90;;;27.40;97.30;;;;;;4947688;28;20129;-75
2023/09/05 11:40:57;;;;;;;3.78;1.63;;;27.40;97.20;;;;;;4958976;28;20501;-75
2023/09/05 11:43:23;;;;;;;3.47;1.58;;;27.50;96.60;;;;;;4935434;28;20867;-74
2023/09/05 11:45:57;;;;;;;2.88;1.58;;;27.60;96.10;;;;;;4953776;29;20029;-75
2023/09/05 11:48:25;;;;;;;3.15;1.77;;;27.60;96.20;;;;;;4956280;28;20023;-74
2023/09/05 11:50:54;;;;;;;2.42;1.50;;;27.70;95.90;;;;;;4936979;29;20038;-74
2023/09/05 11:53:23;;;;;;;4.55;1.90;;;27.80;95.70;;;;;;4952187;28;20033;-74
2023/09/05 11:55:49;;;;;;;4.28;1.50;;;27.80;95.80;;;;;;4938147;29;20027;-74
2023/09/05 11:58:19;;;;;;;6.47;1.75;;;27.90;96.00;;;;;;4967204;28;20051;-74
2023/09/05 12:00:54;;;;;;;2.95;1.42;;;27.90;96.20;;;;;;4964625;28;20043;-74
2023/09/05 12:03:20;;;;;;;2.25;1.60;;;28.00;95.70;;;;;;4943096;28;20049;-74
2023/09/05 12:05:51;;;;;;;1.77;1.45;;;28.00;95.60;;;;;;4965208;28;20027;-74
2023/09/05 12:08:21;;;;;;;1.88;1.55;;;28.10;95.00;;;;;;4966830;28;20030;-75
2023/09/05 12:10:55;;;;;;;5.55;1.88;;;28.10;95.10;;;;;;4957608;28;20077;-74
2023/09/05 12:13:38;;;;;;;6.55;1.65;;;28.20;95.10;;;;;;4963432;28;20027;-74
2023/09/05 12:16:07;;;;;;;2.63;1.40;;;28.20;95.40;;;;;;4954012;28;20027;-75
2023/09/05 12:18:33;;;;;;;5.20;1.58;;;28.30;95.60;;;;;;4932819;29;20027;-74
2023/09/05 12:21:03;;;;;;;5.55;1.95;;;28.30;95.30;;;;;;4955072;28;20045;-74
2023/09/05 12:23:29;;;;;;;2.13;1.75;;;28.40;95.00;;;;;;4963869;28;20482;-74
2023/09/05 12:25:58;;;;;;;3.80;1.70;;;28.40;94.80;;;;;;4959354;28;20032;-74
2023/09/05 12:28:27;;;;;;;5.38;1.55;;;28.50;94.80;;;;;;4964641;28;20035;-74
2023/09/05 12:31:08;;;;;;;1.70;1.40;;;28.50;94.60;;;;;;4965885;28;20022;-74
2023/09/05 12:33:34;;;;;;;4.05;1.70;;;28.60;94.70;;;;;;4931921;29;20818;-74
2023/09/05 12:35:59;;;;;;;3.85;1.60;;;28.60;94.50;;;;;;4951990;28;20038;-74
2023/09/05 12:38:25;;;;;;;3.05;1.80;;;28.70;94.50;;;;;;4956619;28;20027;-74
2023/09/05 12:40:51;;;;;;;4.20;1.52;;;28.70;94.20;;;;;;4951656;28;20449;-74
2023/09/05 12:43:16;;;;;;;2.65;1.70;;;28.80;94.10;;;;;;4952780;28;20023;-74
2023/09/05 12:45:43;;;;;;;4.13;1.67;;;28.80;94.00;;;;;;4964350;28;20581;-74
2023/09/05 12:48:09;;;;;;;1.63;1.40;;;28.90;94.00;;;;;;4955874;28;20039;-73
2023/09/05 12:50:37;;;;;;;2.40;1.42;;;28.90;94.10;;;;;;4944717;28;20101;-73
2023/09/05 12:53:05;;;;;;;3.03;1.60;;;29.00;93.80;;;;;;4941475;28;20579;-74